Terminal Aerodrome Forecast
Issued by NWS

Home | Current Version | Previous Version | Text Only | Print | Product List | Glossary Off
Versions: 1 2 3 4 5 6 7 8 9 10 11 12 13 14 15 16 17 18 19 20 21 22 23 24

546
FTUS43 KABR 232338
TAFMBG
TAF
KMBG 232338Z 2400/2424 16007KT P6SM BKN070
     FM240200 05012KT P6SM VCSH BKN060
     FM240400 04014G21KT 6SM -SHRA BKN045
     FM241200 02016G25KT 6SM SHRA OVC008
     FM241400 01013G21KT 6SM SHRA OVC020
     FM242000 01012G19KT P6SM SCT050=

USA.gov is the U.S. government's official web portal to all federal, state and local government web resources and services.